Time;durP1;ratioP1;P1;durP2;ratioP2;P2;SDS_P1;SDS_P2;PMS_P1;PMS_P2;Temp;Humidity;BMP_temperature;BMP_pressure;BME280_temperature;BME280_humidity;BME280_pressure;Samples;Min_cycle;Max_cycle;Signal;HPM_P1;HPM_P2
2024/01/25 00:00:55;;;;;;;7.57;2.35;;;8.40;91.40;;;;;;5087569;28;20201;-81
2024/01/25 00:03:22;;;;;;;10.13;2.95;;;8.40;91.20;;;;;;5089260;28;20197;-81
2024/01/25 00:05:51;;;;;;;13.60;2.50;;;8.30;91.50;;;;;;5087042;28;20212;-80
2024/01/25 00:08:19;;;;;;;10.13;2.55;;;8.40;91.50;;;;;;5082794;28;20560;-81
2024/01/25 00:10:45;;;;;;;7.35;2.47;;;8.40;91.50;;;;;;5083914;28;20221;-81
2024/01/25 00:13:12;;;;;;;9.90;2.22;;;8.40;91.60;;;;;;5084906;28;20192;-80
2024/01/25 00:15:39;;;;;;;12.15;2.30;;;8.30;91.90;;;;;;5084559;28;20216;-81
2024/01/25 00:18:06;;;;;;;10.48;2.65;;;8.40;92.10;;;;;;5079820;28;20283;-81
2024/01/25 00:20:32;;;;;;;10.60;3.03;;;8.40;92.20;;;;;;5087826;28;20192;-81
2024/01/25 00:22:59;;;;;;;12.80;2.60;;;8.40;92.60;;;;;;5080540;28;20197;-82
2024/01/25 00:25:27;;;;;;;6.28;2.08;;;8.40;92.50;;;;;;5080220;28;20205;-81
2024/01/25 00:27:54;;;;;;;9.48;2.22;;;8.50;92.70;;;;;;5086385;28;20204;-81
2024/01/25 00:30:21;;;;;;;9.90;2.33;;;8.50;92.70;;;;;;5083382;28;20213;-81
2024/01/25 00:32:49;;;;;;;7.72;2.10;;;8.40;92.90;;;;;;5073311;28;20196;-81
2024/01/25 00:35:16;;;;;;;8.40;2.33;;;8.50;93.10;;;;;;5085280;28;20383;-82
2024/01/25 00:37:44;;;;;;;12.90;2.22;;;8.40;93.10;;;;;;5084440;28;20204;-81
2024/01/25 00:40:13;;;;;;;11.27;2.65;;;8.50;93.00;;;;;;5081441;28;20212;-81
2024/01/25 00:42:43;;;;;;;11.57;2.70;;;8.50;93.10;;;;;;5063481;28;20212;-81
2024/01/25 00:45:10;;;;;;;10.80;2.35;;;8.50;92.90;;;;;;5078087;28;20201;-80
2024/01/25 00:47:37;;;;;;;8.32;2.58;;;8.50;92.70;;;;;;5079527;28;20284;-80
2024/01/25 00:50:05;;;;;;;7.68;2.40;;;8.50;92.50;;;;;;5084224;28;20193;-83
2024/01/25 00:52:33;;;;;;;11.73;2.20;;;8.50;92.70;;;;;;5078143;28;20193;-82
2024/01/25 00:55:00;;;;;;;9.93;2.50;;;8.50;92.30;;;;;;5082259;28;20549;-85
2024/01/25 00:57:27;;;;;;;11.20;2.50;;;8.60;92.30;;;;;;5086481;28;20204;-83
2024/01/25 00:59:56;;;;;;;5.72;1.90;;;8.60;91.90;;;;;;5084315;28;20192;-83
2024/01/25 01:02:23;;;;;;;10.10;2.50;;;8.60;91.50;;;;;;5084692;28;20314;-84
2024/01/25 01:04:51;;;;;;;8.43;2.30;;;8.60;91.50;;;;;;5076145;28;20216;-83
2024/01/25 01:07:18;;;;;;;9.73;2.53;;;8.70;91.50;;;;;;5077674;28;20189;-83
2024/01/25 01:09:45;;;;;;;12.82;2.80;;;8.70;91.30;;;;;;5080666;28;20207;-83
2024/01/25 01:12:11;;;;;;;8.75;2.42;;;8.70;91.20;;;;;;5085450;28;20221;-83
2024/01/25 01:14:38;;;;;;;12.65;2.85;;;8.80;91.00;;;;;;5087003;28;20200;-84
2024/01/25 01:17:06;;;;;;;14.60;2.53;;;8.70;91.40;;;;;;5083174;28;20203;-82
2024/01/25 01:19:33;;;;;;;13.18;2.88;;;8.70;91.00;;;;;;5079285;28;20205;-83
2024/01/25 01:22:00;;;;;;;12.52;2.70;;;8.70;91.30;;;;;;5090031;28;20681;-83
2024/01/25 01:24:26;;;;;;;14.43;3.20;;;8.70;91.20;;;;;;5077268;28;20553;-83
2024/01/25 01:26:53;;;;;;;10.80;2.70;;;8.70;91.30;;;;;;5080169;28;20570;-83
2024/01/25 01:29:20;;;;;;;12.02;2.95;;;8.80;90.80;;;;;;5078063;28;20192;-83
2024/01/25 01:31:47;;;;;;;12.05;2.95;;;8.70;90.90;;;;;;5067112;28;20212;-83
2024/01/25 01:34:17;;;;;;;14.90;2.95;;;8.70;91.00;;;;;;5083760;28;20317;-83
2024/01/25 01:36:44;;;;;;;14.15;2.83;;;8.70;91.00;;;;;;5083305;28;20190;-83
2024/01/25 01:39:10;;;;;;;11.18;2.67;;;8.70;91.00;;;;;;5074830;28;20208;-83
2024/01/25 01:41:37;;;;;;;11.00;2.55;;;8.70;91.00;;;;;;5082518;28;20193;-83
2024/01/25 01:44:04;;;;;;;8.93;2.30;;;8.70;91.20;;;;;;5082287;28;20203;-83
2024/01/25 01:46:36;;;;;;;11.18;3.10;;;8.80;91.00;;;;;;5081505;28;20636;-82
2024/01/25 01:49:03;;;;;;;12.48;2.60;;;8.70;91.20;;;;;;5081436;28;20250;-83
2024/01/25 01:51:32;;;;;;;10.75;2.28;;;8.70;91.10;;;;;;5079932;28;20228;-83
2024/01/25 01:54:00;;;;;;;10.55;2.53;;;8.70;91.20;;;;;;5086574;28;20571;-86
2024/01/25 01:56:28;;;;;;;11.05;2.85;;;8.70;91.40;;;;;;5081272;28;20192;-83
2024/01/25 01:58:56;;;;;;;7.85;2.40;;;8.70;91.40;;;;;;5080288;28;20206;-82
2024/01/25 02:01:24;;;;;;;12.75;2.90;;;8.60;91.60;;;;;;5062676;28;20212;-83
2024/01/25 02:03:51;;;;;;;16.08;2.63;;;8.60;91.50;;;;;;5088550;28;20200;-82
2024/01/25 02:06:25;;;;;;;8.48;2.83;;;8.60;91.60;;;;;;5073589;28;20205;-83
2024/01/25 02:08:55;;;;;;;6.07;2.20;;;8.70;91.50;;;;;;5073407;28;20201;-83
2024/01/25 02:11:22;;;;;;;8.68;2.65;;;8.70;91.20;;;;;;5073346;28;20844;-83
2024/01/25 02:13:49;;;;;;;11.70;2.63;;;8.70;91.60;;;;;;5086272;28;20196;-83
2024/01/25 02:16:16;;;;;;;13.45;2.70;;;8.60;91.70;;;;;;5085004;28;20206;-83
2024/01/25 02:18:43;;;;;;;10.30;2.20;;;8.60;91.70;;;;;;5079873;28;20208;-83
2024/01/25 02:21:09;;;;;;;10.95;2.42;;;8.50;92.00;;;;;;5085085;28;20205;-83
2024/01/25 02:23:37;;;;;;;11.13;2.58;;;8.60;92.00;;;;;;5082338;28;20266;-82
2024/01/25 02:26:04;;;;;;;8.77;2.38;;;8.60;92.10;;;;;;5083680;28;20705;-82
2024/01/25 02:28:32;;;;;;;8.68;2.50;;;8.60;92.20;;;;;;5082306;28;20192;-82
2024/01/25 02:31:01;;;;;;;8.27;2.00;;;8.60;92.10;;;;;;5088824;28;20215;-82
2024/01/25 02:33:28;;;;;;;11.27;2.50;;;8.70;92.00;;;;;;5083375;28;20545;-82
2024/01/25 02:35:54;;;;;;;8.40;2.20;;;8.70;92.00;;;;;;5083231;28;20661;-82
2024/01/25 02:38:21;;;;;;;7.93;2.70;;;8.70;92.20;;;;;;5088464;28;20197;-82
2024/01/25 02:40:49;;;;;;;9.15;2.55;;;8.60;92.30;;;;;;5085628;28;20196;-82
2024/01/25 02:43:16;;;;;;;14.27;2.20;;;8.60;92.50;;;;;;5087362;28;20192;-83
2024/01/25 02:45:44;;;;;;;8.25;2.20;;;8.60;92.50;;;;;;5086431;28;20212;-82
2024/01/25 02:48:11;;;;;;;10.73;2.47;;;8.60;92.70;;;;;;5077887;28;20203;-82
2024/01/25 02:50:37;;;;;;;8.95;2.47;;;8.50;92.60;;;;;;5081652;28;20207;-82
2024/01/25 02:53:05;;;;;;;11.00;2.38;;;8.60;92.60;;;;;;5088328;28;20196;-82
2024/01/25 02:55:31;;;;;;;10.40;2.60;;;8.60;92.70;;;;;;5091216;28;20199;-82
2024/01/25 02:57:59;;;;;;;8.85;2.58;;;8.60;92.70;;;;;;5084521;28;20208;-82
2024/01/25 03:00:27;;;;;;;8.02;2.50;;;8.60;92.70;;;;;;5083901;28;20200;-82
2024/01/25 03:02:53;;;;;;;11.00;2.85;;;8.60;92.80;;;;;;5078418;28;20232;-82
2024/01/25 03:05:20;;;;;;;8.85;2.67;;;8.60;92.80;;;;;;5080190;28;20239;-82
2024/01/25 03:07:47;;;;;;;12.20;2.55;;;8.60;93.00;;;;;;5084225;28;20863;-83
2024/01/25 03:10:14;;;;;;;8.60;2.50;;;8.70;92.70;;;;;;5086655;28;20211;-82
2024/01/25 03:12:41;;;;;;;8.10;2.33;;;8.60;92.90;;;;;;5090257;28;20220;-82
2024/01/25 03:15:11;;;;;;;7.90;2.20;;;8.60;92.90;;;;;;5087135;28;20199;-83
2024/01/25 03:17:38;;;;;;;9.05;2.78;;;8.70;92.70;;;;;;5083881;28;20224;-81
2024/01/25 03:20:06;;;;;;;10.07;2.08;;;8.60;92.80;;;;;;5084294;28;20197;-82
2024/01/25 03:22:33;;;;;;;11.40;2.60;;;8.60;93.00;;;;;;5085741;28;20665;-81
2024/01/25 03:24:59;;;;;;;9.25;2.72;;;8.60;92.80;;;;;;5085971;28;20201;-82
2024/01/25 03:27:26;;;;;;;9.98;2.50;;;8.60;93.00;;;;;;5086709;28;20201;-82
2024/01/25 03:29:53;;;;;;;9.98;3.00;;;8.60;93.10;;;;;;5087108;28;20220;-82
2024/01/25 03:32:21;;;;;;;10.10;2.78;;;8.50;93.10;;;;;;5084031;28;20216;-82
2024/01/25 03:34:48;;;;;;;9.40;2.45;;;8.50;93.30;;;;;;5079064;28;20194;-82
2024/01/25 03:37:15;;;;;;;10.60;2.40;;;8.60;93.30;;;;;;5085770;28;20664;-82
2024/01/25 03:39:42;;;;;;;12.35;2.58;;;8.50;93.50;;;;;;5085341;28;20207;-82
2024/01/25 03:42:08;;;;;;;9.18;2.25;;;8.60;93.40;;;;;;5087453;28;20208;-82
2024/01/25 03:44:35;;;;;;;16.58;2.78;;;8.60;93.60;;;;;;5083365;28;20225;-82
2024/01/25 03:47:02;;;;;;;6.20;2.00;;;8.50;93.80;;;;;;5089083;28;20216;-82
2024/01/25 03:49:30;;;;;;;11.15;2.45;;;8.50;94.10;;;;;;5078773;28;20561;-81
2024/01/25 03:51:56;;;;;;;9.40;2.50;;;8.50;94.40;;;;;;5077600;28;20985;-82
2024/01/25 03:54:22;;;;;;;7.55;2.10;;;8.40;94.50;;;;;;5082935;28;20304;-82
2024/01/25 03:56:49;;;;;;;8.85;2.53;;;8.30;95.30;;;;;;5080610;28;20804;-81
2024/01/25 03:59:16;;;;;;;7.00;2.25;;;8.30;95.00;;;;;;5084912;28;20208;-82
2024/01/25 04:01:44;;;;;;;8.50;2.40;;;8.40;94.90;;;;;;5088041;28;20201;-82
2024/01/25 04:04:11;;;;;;;9.93;2.22;;;8.40;94.70;;;;;;5089032;28;20225;-82
2024/01/25 04:06:43;;;;;;;11.85;3.00;;;8.40;94.80;;;;;;5074775;28;20646;-82
2024/01/25 04:09:10;;;;;;;10.23;2.22;;;8.30;94.70;;;;;;5082034;28;20310;-82
2024/01/25 04:11:37;;;;;;;9.63;2.53;;;8.30;94.80;;;;;;5079321;28;20216;-83
2024/01/25 04:14:04;;;;;;;6.28;2.35;;;8.40;94.80;;;;;;5077335;28;20201;-82
2024/01/25 04:16:31;;;;;;;6.97;2.35;;;8.40;94.30;;;;;;5085243;28;20189;-81
2024/01/25 04:18:58;;;;;;;8.43;2.10;;;8.40;94.40;;;;;;5087713;28;20197;-81
2024/01/25 04:21:28;;;;;;;9.70;2.50;;;8.40;94.30;;;;;;5085820;28;20573;-81
2024/01/25 04:23:56;;;;;;;9.70;2.30;;;8.40;94.60;;;;;;5089701;28;20188;-82
2024/01/25 04:26:23;;;;;;;8.48;2.20;;;8.40;94.40;;;;;;5084381;28;20196;-85
2024/01/25 04:28:50;;;;;;;10.43;2.35;;;8.40;94.30;;;;;;5081079;28;20203;-84
2024/01/25 04:31:17;;;;;;;10.00;2.40;;;8.40;94.20;;;;;;5079956;28;20197;-82
2024/01/25 04:33:43;;;;;;;8.18;2.65;;;8.50;94.20;;;;;;5077562;28;20212;-82
2024/01/25 04:36:10;;;;;;;11.25;2.45;;;8.50;94.30;;;;;;5080981;28;20197;-82
2024/01/25 04:38:37;;;;;;;8.40;2.53;;;8.50;94.20;;;;;;5080519;28;20251;-82
2024/01/25 04:41:05;;;;;;;10.05;2.22;;;8.50;94.20;;;;;;5077104;28;20208;-81
2024/01/25 04:43:35;;;;;;;8.70;2.33;;;8.40;94.50;;;;;;5075512;28;20194;-82
2024/01/25 04:46:02;;;;;;;10.82;2.40;;;8.30;94.60;;;;;;5093134;28;20201;-82
2024/01/25 04:48:29;;;;;;;9.18;2.55;;;8.30;94.90;;;;;;5082596;28;20242;-81
2024/01/25 04:50:57;;;;;;;9.35;2.20;;;8.30;94.90;;;;;;5082502;28;20664;-81
2024/01/25 04:53:24;;;;;;;12.48;2.40;;;8.30;95.10;;;;;;5086794;28;20224;-82
2024/01/25 04:55:50;;;;;;;10.45;2.33;;;8.30;95.00;;;;;;5074271;28;20193;-81
2024/01/25 04:58:18;;;;;;;9.10;2.28;;;8.30;95.20;;;;;;5091742;28;20203;-81
2024/01/25 05:00:45;;;;;;;7.10;2.22;;;8.30;95.00;;;;;;5085361;28;20188;-80
2024/01/25 05:03:12;;;;;;;8.40;2.33;;;8.30;95.00;;;;;;5070034;28;20196;-81
2024/01/25 05:05:39;;;;;;;8.60;2.50;;;8.30;95.10;;;;;;5082459;28;20216;-80
2024/01/25 05:08:07;;;;;;;11.93;2.33;;;8.40;94.80;;;;;;5078081;28;20205;-80
2024/01/25 05:10:34;;;;;;;9.45;2.17;;;8.30;94.90;;;;;;5083416;28;20564;-80
2024/01/25 05:13:00;;;;;;;6.18;2.00;;;8.30;94.90;;;;;;5083950;28;20216;-82
2024/01/25 05:15:29;;;;;;;6.88;2.40;;;8.30;95.20;;;;;;5083583;28;20188;-81
2024/01/25 05:17:56;;;;;;;11.60;2.08;;;8.30;95.10;;;;;;5084913;28;20665;-81
2024/01/25 05:20:22;;;;;;;9.00;2.40;;;8.20;95.30;;;;;;5082825;28;20197;-81
2024/01/25 05:22:49;;;;;;;8.13;2.15;;;8.20;95.70;;;;;;5080354;28;20713;-81
2024/01/25 05:25:20;;;;;;;7.65;2.10;;;8.20;95.40;;;;;;5084363;28;20197;-81
2024/01/25 05:27:47;;;;;;;8.32;2.15;;;8.20;95.30;;;;;;5083063;28;20656;-81
2024/01/25 05:30:14;;;;;;;4.78;1.70;;;8.20;95.70;;;;;;5085928;28;20199;-80
2024/01/25 05:32:42;;;;;;;8.98;2.30;;;8.20;95.50;;;;;;5080329;28;20216;-80
2024/01/25 05:35:09;;;;;;;6.47;2.00;;;8.30;95.20;;;;;;5081332;28;20595;-81
2024/01/25 05:37:36;;;;;;;7.93;2.00;;;8.20;95.10;;;;;;5064669;28;20208;-80
2024/01/25 05:40:03;;;;;;;6.10;2.03;;;8.20;95.30;;;;;;5088800;28;20206;-80
2024/01/25 05:42:30;;;;;;;11.82;2.28;;;8.20;95.30;;;;;;5086611;28;20208;-81
2024/01/25 05:44:57;;;;;;;8.57;2.50;;;8.30;95.10;;;;;;5086273;28;20205;-82
2024/01/25 05:47:23;;;;;;;8.75;2.25;;;8.20;95.00;;;;;;5077694;28;20200;-81
2024/01/25 05:49:52;;;;;;;6.50;2.20;;;8.20;95.90;;;;;;5059646;28;20201;-80
2024/01/25 05:52:20;;;;;;;6.43;1.70;;;8.20;95.70;;;;;;5080869;28;20684;-80
2024/01/25 05:54:47;;;;;;;6.78;2.40;;;8.10;95.70;;;;;;5084955;28;20197;-82
2024/01/25 05:57:14;;;;;;;8.85;2.20;;;8.10;95.70;;;;;;5084141;28;20196;-82
2024/01/25 05:59:41;;;;;;;9.68;2.55;;;8.20;95.70;;;;;;5077638;28;20205;-82
2024/01/25 06:02:08;;;;;;;6.97;2.05;;;8.20;95.70;;;;;;5089124;28;20197;-82
2024/01/25 06:04:35;;;;;;;7.03;2.13;;;8.10;95.70;;;;;;5079395;28;20274;-82
2024/01/25 06:07:04;;;;;;;8.82;2.58;;;8.20;95.70;;;;;;5066263;28;20227;-82
2024/01/25 06:09:31;;;;;;;10.88;2.70;;;8.20;95.40;;;;;;5081984;28;20197;-82
2024/01/25 06:11:58;;;;;;;8.60;2.35;;;8.10;95.70;;;;;;5080112;28;20213;-82
2024/01/25 06:14:25;;;;;;;10.07;2.70;;;8.10;95.70;;;;;;5056340;28;20193;-82
2024/01/25 06:16:52;;;;;;;11.32;2.58;;;8.10;95.70;;;;;;5081244;28;20672;-83
2024/01/25 06:19:19;;;;;;;10.48;2.20;;;8.00;95.70;;;;;;5078796;28;20219;-82
2024/01/25 06:21:46;;;;;;;11.55;2.70;;;8.00;95.70;;;;;;5065200;28;20289;-82
2024/01/25 06:24:14;;;;;;;9.60;2.38;;;8.00;95.70;;;;;;5080601;28;20322;-82
2024/01/25 06:26:41;;;;;;;15.00;2.75;;;7.90;95.70;;;;;;5063846;28;20201;-82
2024/01/25 06:29:08;;;;;;;8.18;2.30;;;8.00;95.70;;;;;;5077024;28;20202;-82
2024/01/25 06:31:42;;;;;;;8.63;2.15;;;8.00;95.20;;;;;;5086746;28;20223;-83
2024/01/25 06:34:09;;;;;;;13.43;2.40;;;8.10;94.80;;;;;;5077764;28;20208;-83
2024/01/25 06:36:36;;;;;;;14.05;3.60;;;8.00;94.80;;;;;;5061198;28;20672;-82
2024/01/25 06:39:04;;;;;;;9.43;2.42;;;8.00;95.00;;;;;;5081359;28;20204;-82
2024/01/25 06:41:32;;;;;;;8.13;2.53;;;7.90;95.10;;;;;;5072928;28;20197;-83
2024/01/25 06:43:59;;;;;;;11.43;2.38;;;7.80;95.60;;;;;;5070680;28;20208;-83
2024/01/25 06:46:26;;;;;;;11.35;3.05;;;7.80;95.70;;;;;;5086782;28;20213;-83
2024/01/25 06:48:53;;;;;;;13.40;2.67;;;7.70;95.70;;;;;;5084895;28;20204;-82
2024/01/25 06:51:20;;;;;;;8.40;2.85;;;7.70;95.60;;;;;;5090716;28;20205;-82
2024/01/25 06:53:47;;;;;;;12.38;3.10;;;7.70;95.60;;;;;;5081436;28;20308;-81
2024/01/25 06:56:13;;;;;;;11.30;3.03;;;7.50;95.60;;;;;;5085194;28;20200;-81
2024/01/25 06:58:42;;;;;;;14.15;3.03;;;7.50;95.60;;;;;;5082104;28;20208;-82
2024/01/25 07:01:08;;;;;;;13.82;2.67;;;7.50;95.60;;;;;;5087308;28;20205;-80
2024/01/25 07:03:35;;;;;;;9.00;2.65;;;7.50;95.60;;;;;;5081056;28;20605;-81
2024/01/25 07:06:03;;;;;;;13.18;3.00;;;7.50;95.60;;;;;;5075250;28;20212;-81
2024/01/25 07:08:30;;;;;;;9.95;2.70;;;7.40;95.60;;;;;;5083019;28;20280;-81
2024/01/25 07:10:59;;;;;;;12.98;2.60;;;7.30;95.60;;;;;;5074669;28;20204;-81
2024/01/25 07:13:26;;;;;;;9.40;2.70;;;7.30;96.00;;;;;;5082222;28;20230;-81
2024/01/25 07:15:54;;;;;;;12.13;3.35;;;7.30;95.70;;;;;;5082081;28;20211;-81
2024/01/25 07:18:22;;;;;;;13.23;3.00;;;7.30;95.60;;;;;;5079665;28;20198;-81
2024/01/25 07:20:49;;;;;;;14.52;3.15;;;7.30;95.80;;;;;;5087222;28;20193;-81
2024/01/25 07:23:16;;;;;;;15.55;3.03;;;7.30;95.80;;;;;;5092189;28;20208;-82
2024/01/25 07:25:43;;;;;;;9.55;3.05;;;7.20;95.90;;;;;;5088012;28;20204;-82
2024/01/25 07:28:10;;;;;;;9.88;2.40;;;7.30;96.10;;;;;;5097268;28;20196;-81
2024/01/25 07:30:36;;;;;;;9.60;2.83;;;7.30;96.00;;;;;;5092373;28;20657;-82
2024/01/25 07:33:05;;;;;;;14.98;3.00;;;7.50;95.90;;;;;;5081463;28;20232;-81
2024/01/25 07:35:33;;;;;;;17.88;3.42;;;7.60;95.60;;;;;;5079886;28;20197;-82
2024/01/25 07:38:00;;;;;;;15.02;2.95;;;7.60;95.60;;;;;;5082829;28;20205;-81
2024/01/25 07:40:26;;;;;;;10.75;2.85;;;7.70;95.60;;;;;;5063609;28;20193;-82
2024/01/25 07:42:53;;;;;;;7.85;2.60;;;7.60;95.60;;;;;;5081809;28;20209;-82
2024/01/25 07:45:20;;;;;;;10.82;2.60;;;7.70;95.60;;;;;;5082853;28;20595;-82
2024/01/25 07:47:47;;;;;;;11.30;2.63;;;7.60;95.60;;;;;;5089807;28;20199;-82
2024/01/25 07:50:15;;;;;;;11.68;2.95;;;7.60;95.60;;;;;;5090414;28;20203;-80
2024/01/25 07:52:42;;;;;;;14.13;2.83;;;7.60;95.60;;;;;;5087000;28;20273;-81
2024/01/25 07:55:11;;;;;;;17.75;3.20;;;7.70;95.60;;;;;;5089580;28;20924;-82
2024/01/25 07:57:37;;;;;;;10.27;2.95;;;7.80;95.70;;;;;;5079326;28;20197;-81
2024/01/25 08:00:05;;;;;;;9.77;3.03;;;7.90;95.20;;;;;;5079174;28;20213;-81
2024/01/25 08:02:32;;;;;;;8.85;2.60;;;8.10;94.90;;;;;;5085340;28;20200;-82
2024/01/25 08:04:59;;;;;;;10.32;2.70;;;8.00;94.80;;;;;;5079666;28;20220;-82
2024/01/25 08:07:27;;;;;;;8.73;2.88;;;8.10;94.70;;;;;;5084268;28;20198;-82
2024/01/25 08:09:57;;;;;;;12.23;2.78;;;8.10;94.60;;;;;;5086169;28;20297;-82
2024/01/25 08:12:24;;;;;;;10.38;2.70;;;8.10;94.50;;;;;;5083398;28;20208;-81
2024/01/25 08:14:51;;;;;;;15.43;3.10;;;8.10;94.40;;;;;;5086499;28;20650;-82
2024/01/25 08:17:18;;;;;;;12.13;2.92;;;8.10;94.30;;;;;;5083733;28;20196;-81
2024/01/25 08:19:46;;;;;;;14.75;3.22;;;8.20;94.20;;;;;;5084818;28;20202;-81
2024/01/25 08:22:13;;;;;;;12.45;2.88;;;8.10;93.70;;;;;;5080142;28;20197;-82
2024/01/25 08:24:41;;;;;;;15.02;3.65;;;8.20;93.00;;;;;;5084353;28;20227;-81
2024/01/25 08:27:08;;;;;;;11.00;3.20;;;8.30;92.60;;;;;;5069872;28;20201;-81
2024/01/25 08:29:35;;;;;;;11.65;3.28;;;8.20;92.30;;;;;;5078854;28;20247;-82
2024/01/25 08:32:02;;;;;;;14.45;3.53;;;8.20;91.80;;;;;;5080138;28;20247;-82
2024/01/25 08:34:29;;;;;;;15.57;3.50;;;8.30;90.80;;;;;;5079491;28;20317;-82
2024/01/25 08:36:56;;;;;;;12.70;3.50;;;8.30;90.40;;;;;;5090979;28;20209;-81
2024/01/25 08:39:23;;;;;;;10.07;2.80;;;8.50;90.40;;;;;;5086151;28;20200;-82
2024/01/25 08:41:51;;;;;;;11.23;2.70;;;8.60;90.40;;;;;;5085034;28;20247;-82
2024/01/25 08:44:18;;;;;;;14.73;3.38;;;8.60;89.50;;;;;;5078157;28;20288;-81
2024/01/25 08:46:45;;;;;;;14.90;3.58;;;8.70;90.00;;;;;;5089164;28;20201;-81
2024/01/25 08:49:12;;;;;;;16.77;3.63;;;8.80;88.60;;;;;;5073310;28;20673;-81
2024/01/25 08:51:38;;;;;;;12.25;3.40;;;8.80;88.70;;;;;;5082391;28;20228;-82
2024/01/25 08:54:05;;;;;;;14.27;3.05;;;9.00;87.60;;;;;;5081996;28;20221;-82
2024/01/25 08:56:32;;;;;;;12.15;3.42;;;9.10;85.20;;;;;;5080054;28;20558;-82
2024/01/25 08:59:01;;;;;;;12.88;3.03;;;9.20;84.30;;;;;;5083132;28;20201;-82
2024/01/25 09:01:28;;;;;;;11.05;3.28;;;9.40;82.90;;;;;;5086658;28;20232;-82
2024/01/25 09:03:57;;;;;;;10.70;2.78;;;9.40;81.30;;;;;;5086838;28;20589;-82
2024/01/25 09:06:24;;;;;;;15.52;3.10;;;9.40;80.60;;;;;;5084619;28;20292;-83
2024/01/25 09:08:51;;;;;;;16.77;3.40;;;9.50;77.80;;;;;;5087840;28;20968;-82
2024/01/25 09:11:16;;;;;;;14.02;3.20;;;9.50;77.20;;;;;;5086049;28;20204;-82
2024/01/25 09:13:45;;;;;;;11.98;3.00;;;9.70;75.90;;;;;;5073155;28;20587;-82
2024/01/25 09:16:15;;;;;;;8.75;2.78;;;10.20;70.40;;;;;;5079589;28;20201;-82
2024/01/25 09:18:42;;;;;;;14.27;3.10;;;10.60;62.50;;;;;;5083311;28;20196;-82
2024/01/25 09:21:09;;;;;;;14.18;3.38;;;11.30;50.60;;;;;;5088184;28;20197;-82
2024/01/25 09:23:36;;;;;;;14.95;3.88;;;11.90;43.40;;;;;;5072954;28;20197;-82
2024/01/25 09:26:03;;;;;;;15.60;3.53;;;12.30;38.10;;;;;;5083486;28;20196;-83
2024/01/25 09:28:30;;;;;;;16.38;3.92;;;12.80;34.60;;;;;;5077124;28;20715;-84
2024/01/25 09:30:57;;;;;;;10.77;3.20;;;12.90;33.00;;;;;;5083558;28;20193;-82
2024/01/25 09:33:25;;;;;;;14.82;3.53;;;12.70;31.70;;;;;;5085448;28;20250;-82
2024/01/25 09:35:51;;;;;;;15.40;3.90;;;12.00;31.70;;;;;;5082650;28;20200;-81
2024/01/25 09:38:18;;;;;;;14.25;3.78;;;11.30;36.20;;;;;;5080934;28;20197;-81
2024/01/25 09:40:46;;;;;;;17.83;4.00;;;11.10;38.00;;;;;;5079878;28;20200;-80
2024/01/25 09:43:13;;;;;;;17.13;3.78;;;10.90;38.30;;;;;;5070632;28;20205;-82
2024/01/25 09:45:42;;;;;;;13.13;3.55;;;10.90;40.40;;;;;;5082424;28;20201;-81
2024/01/25 09:48:17;;;;;;;14.10;3.72;;;11.00;39.10;;;;;;5075377;28;20212;-81
2024/01/25 09:50:48;;;;;;;13.13;3.60;;;10.80;37.90;;;;;;5087561;28;20657;-82
2024/01/25 09:53:23;;;;;;;17.38;3.70;;;10.50;39.30;;;;;;5065531;28;20341;-82
2024/01/25 09:55:58;;;;;;;15.05;3.33;;;10.50;39.00;;;;;;5057400;28;20221;-84
2024/01/25 09:58:30;;;;;;;13.95;3.65;;;10.70;39.30;;;;;;5065730;28;20232;-82
2024/01/25 10:00:57;;;;;;;14.45;3.63;;;11.00;37.90;;;;;;5082592;28;20638;-82
2024/01/25 10:03:24;;;;;;;12.45;3.10;;;11.80;33.70;;;;;;5078918;28;20265;-82
2024/01/25 10:05:52;;;;;;;15.57;3.38;;;12.70;31.80;;;;;;5083323;28;20257;-80
2024/01/25 10:08:23;;;;;;;13.60;3.80;;;13.70;26.70;;;;;;5079834;28;20203;-80
2024/01/25 10:10:51;;;;;;;9.98;3.00;;;14.00;25.80;;;;;;5079904;28;20224;-80
2024/01/25 10:13:19;;;;;;;13.75;3.58;;;14.20;23.50;;;;;;5077523;28;20228;-81
2024/01/25 10:15:47;;;;;;;16.38;4.20;;;14.20;24.90;;;;;;5083337;28;20199;-80
2024/01/25 10:18:14;;;;;;;13.45;3.92;;;13.90;24.00;;;;;;5081495;28;20968;-81
2024/01/25 10:20:41;;;;;;;10.80;3.53;;;13.70;23.30;;;;;;5085128;28;20192;-81
2024/01/25 10:23:09;;;;;;;12.35;3.45;;;13.50;26.60;;;;;;5076338;28;20201;-80
2024/01/25 10:25:37;;;;;;;13.95;3.63;;;12.50;25.70;;;;;;5087839;28;20192;-83
2024/01/25 10:28:04;;;;;;;14.88;3.30;;;11.90;27.60;;;;;;5081493;28;20211;-82
2024/01/25 10:30:33;;;;;;;19.98;3.70;;;11.50;29.20;;;;;;5081086;28;20590;-83
2024/01/25 10:33:01;;;;;;;12.98;3.50;;;11.10;30.10;;;;;;5083506;28;20201;-83
2024/01/25 10:35:28;;;;;;;16.55;3.33;;;11.00;31.20;;;;;;5084199;28;20204;-82
2024/01/25 10:37:56;;;;;;;13.85;3.15;;;10.80;32.30;;;;;;5081016;28;20644;-82
2024/01/25 10:40:24;;;;;;;10.73;3.22;;;10.40;34.00;;;;;;5081723;28;20205;-82
2024/01/25 10:42:51;;;;;;;12.35;3.50;;;10.20;36.20;;;;;;5080190;28;20193;-82
2024/01/25 10:45:18;;;;;;;14.88;3.63;;;10.20;39.60;;;;;;5078171;28;20213;-82
2024/01/25 10:47:49;;;;;;;15.90;3.67;;;10.30;36.70;;;;;;5087124;28;20189;-82
2024/01/25 10:50:16;;;;;;;14.38;3.88;;;9.80;40.30;;;;;;5086005;28;20205;-82
2024/01/25 10:52:44;;;;;;;10.88;3.35;;;9.70;42.50;;;;;;5062170;28;20251;-82
2024/01/25 10:55:13;;;;;;;13.63;3.45;;;9.60;45.40;;;;;;5078777;28;20734;-82
2024/01/25 10:57:44;;;;;;;10.90;3.35;;;9.80;48.20;;;;;;5082327;28;20193;-82
2024/01/25 11:00:12;;;;;;;16.30;3.53;;;9.70;45.90;;;;;;5087233;28;20200;-82
2024/01/25 11:02:40;;;;;;;13.85;3.55;;;9.90;46.10;;;;;;5086360;28;20196;-82
2024/01/25 11:05:26;;;;;;;13.82;3.95;;;10.50;42.50;;;;;;5085717;28;20319;-82
2024/01/25 11:07:53;;;;;;;15.00;3.63;;;10.90;39.60;;;;;;5084586;28;20218;-83
2024/01/25 11:10:21;;;;;;;16.27;3.17;;;11.00;38.60;;;;;;5076938;28;20201;-82
2024/01/25 11:13:00;;;;;;;17.05;3.75;;;10.90;35.30;;;;;;5088422;28;20197;-82
2024/01/25 11:15:32;;;;;;;17.10;3.72;;;10.70;36.40;;;;;;5065017;28;20274;-82
2024/01/25 11:17:59;;;;;;;15.00;3.50;;;10.40;38.30;;;;;;5062837;28;20680;-83
2024/01/25 11:20:28;;;;;;;14.35;3.50;;;10.50;40.40;;;;;;5080138;28;20212;-83
2024/01/25 11:23:04;;;;;;;17.15;3.70;;;10.30;39.50;;;;;;5082962;28;20228;-82
2024/01/25 11:25:32;;;;;;;12.45;3.13;;;10.40;39.50;;;;;;5088498;28;20201;-82
2024/01/25 11:28:02;;;;;;;13.10;3.20;;;10.50;38.20;;;;;;5094411;28;20203;-83
2024/01/25 11:30:30;;;;;;;13.55;3.45;;;10.30;40.30;;;;;;5080859;28;20197;-81
2024/01/25 11:32:56;;;;;;;9.60;3.10;;;10.20;42.00;;;;;;5086399;28;20201;-80
2024/01/25 11:35:23;;;;;;;14.50;3.25;;;9.90;45.60;;;;;;5084815;28;20224;-80
2024/01/25 11:37:52;;;;;;;12.10;3.70;;;9.90;46.10;;;;;;5085747;28;20198;-80
2024/01/25 11:40:19;;;;;;;12.18;3.05;;;9.90;47.10;;;;;;5092346;28;20675;-80
2024/01/25 11:42:49;;;;;;;12.27;3.35;;;9.70;48.10;;;;;;5082260;28;20256;-80
2024/01/25 11:45:19;;;;;;;13.63;3.38;;;9.80;48.20;;;;;;5085958;28;20284;-80
2024/01/25 11:47:46;;;;;;;11.70;3.38;;;9.90;48.30;;;;;;5082059;28;20201;-81
2024/01/25 11:50:16;;;;;;;12.57;3.05;;;10.10;46.90;;;;;;5091002;28;20192;-80
2024/01/25 11:52:44;;;;;;;14.32;3.45;;;10.20;47.00;;;;;;5074862;28;20201;-80
2024/01/25 11:55:11;;;;;;;14.75;3.40;;;10.40;42.10;;;;;;5085451;28;20257;-81
2024/01/25 11:57:40;;;;;;;15.45;3.35;;;10.20;44.50;;;;;;5082986;28;20304;-81
2024/01/25 12:00:09;;;;;;;12.55;3.47;;;10.20;41.70;;;;;;5088554;28;20288;-81
2024/01/25 12:02:38;;;;;;;14.60;4.05;;;10.40;41.30;;;;;;5084030;28;20192;-81
2024/01/25 12:05:06;;;;;;;14.45;3.83;;;10.50;40.60;;;;;;5085036;28;20216;-80
2024/01/25 12:07:33;;;;;;;22.42;4.13;;;10.60;41.30;;;;;;5084094;28;20198;-81
2024/01/25 12:10:00;;;;;;;12.25;3.08;;;10.50;40.50;;;;;;5072577;28;20652;-81
2024/01/25 12:12:29;;;;;;;11.85;2.90;;;10.60;39.70;;;;;;5078319;28;20201;-80
2024/01/25 12:14:59;;;;;;;12.88;3.10;;;10.60;37.50;;;;;;5083451;28;20561;-81
2024/01/25 12:17:28;;;;;;;8.75;2.72;;;10.40;37.50;;;;;;5090700;28;20265;-82
2024/01/25 12:19:57;;;;;;;13.20;2.88;;;10.30;39.10;;;;;;5078041;28;20580;-83
2024/01/25 12:22:25;;;;;;;9.07;2.78;;;10.10;39.10;;;;;;5082793;28;20196;-84
2024/01/25 12:24:54;;;;;;;8.93;2.80;;;10.00;39.30;;;;;;5084117;28;20209;-81
2024/01/25 12:27:22;;;;;;;12.05;3.47;;;10.00;40.80;;;;;;5079371;28;21498;-82
2024/01/25 12:29:49;;;;;;;12.82;3.08;;;9.90;41.80;;;;;;5082840;28;20683;-80
2024/01/25 12:32:16;;;;;;;9.48;3.00;;;9.90;43.20;;;;;;5087783;28;20201;-82
2024/01/25 12:34:43;;;;;;;13.15;3.45;;;9.90;43.50;;;;;;5083527;28;20303;-83
2024/01/25 12:37:12;;;;;;;10.02;3.30;;;10.00;40.30;;;;;;5085393;28;20201;-83
2024/01/25 12:39:39;;;;;;;12.52;3.40;;;10.20;41.90;;;;;;5085347;28;20198;-83
2024/01/25 12:42:05;;;;;;;11.25;3.40;;;10.40;39.70;;;;;;5083935;28;20250;-82
2024/01/25 12:44:32;;;;;;;13.18;3.05;;;10.50;39.30;;;;;;5088340;28;20200;-83
2024/01/25 12:47:02;;;;;;;10.55;3.13;;;10.50;37.90;;;;;;5090078;28;20555;-82
2024/01/25 12:49:29;;;;;;;13.20;3.00;;;10.60;39.10;;;;;;5065529;28;20192;-85